Time;durP1;ratioP1;P1;durP2;ratioP2;P2;SDS_P1;SDS_P2;PMS_P1;PMS_P2;Temp;Humidity;BMP_temperature;BMP_pressure;BME280_temperature;BME280_humidity;BME280_pressure;Samples;Min_cycle;Max_cycle;Signal;HPM_P1;HPM_P2
2024/01/12 00:02:23;;;;;;;2.95;1.13;;;17.40;63.00;;;;;;4852724;29;20161;-84
2024/01/12 00:04:48;;;;;;;2.15;1.00;;;17.40;63.20;;;;;;4852399;29;20182;-84
2024/01/12 00:07:14;;;;;;;2.67;0.98;;;17.30;63.20;;;;;;4852494;29;20161;-84
2024/01/12 00:09:42;;;;;;;3.78;1.00;;;17.30;63.40;;;;;;4867521;29;20203;-83
2024/01/12 00:12:07;;;;;;;2.05;1.00;;;17.30;63.50;;;;;;4867620;29;20631;-84
2024/01/12 00:14:33;;;;;;;3.90;1.10;;;17.30;63.30;;;;;;4852221;29;20224;-83
2024/01/12 00:16:59;;;;;;;1.90;1.17;;;17.30;63.30;;;;;;4854510;29;20250;-84
2024/01/12 00:19:25;;;;;;;2.15;1.10;;;17.30;63.70;;;;;;4855005;29;20200;-84
2024/01/12 00:21:52;;;;;;;4.13;1.27;;;17.20;63.80;;;;;;4855176;29;20270;-84
2024/01/12 00:24:18;;;;;;;3.40;1.15;;;17.20;63.70;;;;;;4871159;29;20166;-84
2024/01/12 00:26:46;;;;;;;3.60;1.00;;;17.30;63.60;;;;;;4870560;29;20152;-84
2024/01/12 00:29:12;;;;;;;2.50;1.00;;;17.20;63.70;;;;;;4855628;29;20182;-84
2024/01/12 00:31:38;;;;;;;2.13;1.20;;;17.20;63.60;;;;;;4870391;29;20160;-83
2024/01/12 00:34:04;;;;;;;2.30;1.13;;;17.10;63.30;;;;;;4853991;29;20160;-84
2024/01/12 00:36:32;;;;;;;2.35;1.13;;;17.20;63.40;;;;;;4869868;29;20219;-84
2024/01/12 00:38:58;;;;;;;2.08;1.20;;;17.20;63.40;;;;;;4870097;29;20282;-83
2024/01/12 00:41:23;;;;;;;1.90;0.90;;;17.10;63.60;;;;;;4853929;29;20636;-84
2024/01/12 00:43:49;;;;;;;5.05;1.58;;;17.20;63.30;;;;;;4843742;23;20237;-84
2024/01/12 00:46:15;;;;;;;2.53;1.27;;;17.10;63.70;;;;;;4800005;29;20217;-84
2024/01/12 00:48:42;;;;;;;2.08;1.10;;;17.10;63.40;;;;;;4814335;29;20166;-84
2024/01/12 00:51:10;;;;;;;1.10;1.00;;;17.20;63.00;;;;;;4814551;29;20199;-84
2024/01/12 00:53:39;;;;;;;2.42;1.20;;;17.10;63.20;;;;;;4828626;29;20174;-83
2024/01/12 00:56:07;;;;;;;2.55;1.08;;;17.10;63.10;;;;;;4814191;29;20182;-83
2024/01/12 00:58:34;;;;;;;3.03;1.15;;;17.20;63.10;;;;;;4798761;29;20197;-83
2024/01/12 01:01:00;;;;;;;2.30;0.95;;;17.30;62.90;;;;;;4813472;29;20276;-83
2024/01/12 01:03:27;;;;;;;3.75;1.10;;;17.10;63.20;;;;;;4799119;29;20697;-83
2024/01/12 01:05:55;;;;;;;2.80;1.00;;;17.20;62.70;;;;;;4821800;29;20225;-83
2024/01/12 01:08:21;;;;;;;1.02;0.80;;;17.20;62.80;;;;;;4831866;29;20785;-83
2024/01/12 01:10:47;;;;;;;2.80;1.00;;;17.30;62.80;;;;;;4827036;29;20294;-83
2024/01/12 01:13:14;;;;;;;4.13;1.10;;;17.20;62.70;;;;;;4797761;29;20277;-83
2024/01/12 01:15:40;;;;;;;4.15;0.98;;;17.20;62.80;;;;;;4813047;29;20192;-83
2024/01/12 01:18:06;;;;;;;1.60;0.95;;;17.30;62.50;;;;;;4812922;29;20216;-83
2024/01/12 01:20:35;;;;;;;2.28;0.93;;;17.30;62.50;;;;;;4796999;29;20276;-83
2024/01/12 01:23:02;;;;;;;1.33;0.90;;;17.30;62.60;;;;;;4828528;29;20158;-83
2024/01/12 01:25:28;;;;;;;2.85;1.20;;;17.30;62.40;;;;;;4830801;29;20253;-83
2024/01/12 01:27:54;;;;;;;3.28;1.05;;;17.30;63.20;;;;;;4820592;29;20315;-83
2024/01/12 01:30:21;;;;;;;1.73;0.88;;;17.20;62.70;;;;;;4842413;29;20185;-83
2024/01/12 01:32:48;;;;;;;1.70;1.00;;;17.10;62.70;;;;;;4816692;29;20203;-84
2024/01/12 01:35:26;;;;;;;2.65;1.02;;;17.20;62.80;;;;;;4818975;29;20244;-84
2024/01/12 01:38:26;;;;;;;3.38;1.10;;;17.20;62.50;;;;;;4835690;29;20169;-84
2024/01/12 01:40:58;;;;;;;3.45;1.02;;;17.20;62.40;;;;;;4838464;29;20269;-84
2024/01/12 01:43:26;;;;;;;1.52;0.80;;;17.10;62.40;;;;;;4832483;29;20234;-84
2024/01/12 01:45:52;;;;;;;2.28;1.15;;;17.20;62.70;;;;;;4846673;29;20168;-84
2024/01/12 01:48:18;;;;;;;2.72;0.88;;;17.20;62.50;;;;;;4862392;29;20170;-84
2024/01/12 01:50:48;;;;;;;3.05;1.10;;;17.20;62.50;;;;;;4846116;29;20222;-84
2024/01/12 01:53:14;;;;;;;1.70;0.90;;;17.10;62.50;;;;;;4814662;29;20231;-83
2024/01/12 01:55:40;;;;;;;1.63;0.98;;;17.20;62.30;;;;;;4816755;29;20200;-84
2024/01/12 01:58:05;;;;;;;3.03;1.20;;;17.10;62.30;;;;;;4831151;29;20567;-84
2024/01/12 02:00:32;;;;;;;2.20;1.00;;;17.20;62.10;;;;;;4815505;29;20180;-84
2024/01/12 02:02:59;;;;;;;3.55;1.02;;;17.20;62.40;;;;;;4831344;29;20212;-84
2024/01/12 02:05:25;;;;;;;1.83;0.90;;;17.20;62.20;;;;;;4816219;29;20176;-83
2024/01/12 02:07:51;;;;;;;2.25;0.95;;;17.20;62.70;;;;;;4815550;29;20179;-83
2024/01/12 02:10:17;;;;;;;3.85;1.23;;;17.20;62.40;;;;;;4814998;29;20540;-83
2024/01/12 02:12:43;;;;;;;3.38;0.90;;;17.10;61.90;;;;;;4830096;29;20192;-83
2024/01/12 02:15:10;;;;;;;2.63;0.85;;;17.10;62.50;;;;;;4830398;29;20153;-83
2024/01/12 02:17:36;;;;;;;0.98;0.80;;;17.10;62.30;;;;;;4861655;29;20153;-83
2024/01/12 02:20:03;;;;;;;3.15;1.25;;;17.10;62.50;;;;;;4829775;29;20594;-83
2024/01/12 02:22:28;;;;;;;2.17;0.88;;;17.10;62.20;;;;;;4815377;29;20172;-83
2024/01/12 02:24:58;;;;;;;1.58;1.00;;;17.10;62.30;;;;;;4830967;29;20201;-83
2024/01/12 02:27:24;;;;;;;6.25;1.10;;;17.20;62.40;;;;;;4799852;29;20184;-83
2024/01/12 02:29:52;;;;;;;3.08;1.00;;;17.10;62.40;;;;;;4831232;29;20176;-83
2024/01/12 02:32:19;;;;;;;2.20;1.00;;;17.00;62.70;;;;;;4815479;29;20172;-83
2024/01/12 02:34:49;;;;;;;1.90;1.10;;;17.10;62.30;;;;;;4830347;29;20165;-83
2024/01/12 02:37:16;;;;;;;1.95;0.98;;;17.20;62.30;;;;;;4814350;29;20231;-83
2024/01/12 02:39:42;;;;;;;3.17;1.00;;;17.10;61.90;;;;;;4830298;29;20193;-83
2024/01/12 02:42:07;;;;;;;2.55;1.02;;;17.10;62.30;;;;;;4815061;29;20243;-83
2024/01/12 02:44:33;;;;;;;2.13;0.90;;;17.10;62.70;;;;;;4848539;29;20168;-83
2024/01/12 02:47:03;;;;;;;2.38;1.00;;;17.00;62.60;;;;;;4838674;29;20169;-84
2024/01/12 02:49:29;;;;;;;1.20;0.90;;;17.10;62.60;;;;;;4834059;29;20677;-83
2024/01/12 02:51:55;;;;;;;1.48;1.00;;;17.10;62.20;;;;;;4845229;29;20161;-83
2024/01/12 02:54:22;;;;;;;1.27;0.77;;;17.10;62.40;;;;;;4830301;29;20192;-83
2024/01/12 02:56:48;;;;;;;1.92;1.08;;;17.10;62.60;;;;;;4845356;29;20203;-83
2024/01/12 02:59:13;;;;;;;1.50;0.82;;;17.00;62.50;;;;;;4826973;29;20232;-83
2024/01/12 03:01:41;;;;;;;1.75;0.73;;;17.00;62.40;;;;;;4843140;29;20535;-84
2024/01/12 03:04:12;;;;;;;1.75;0.90;;;17.10;62.40;;;;;;4797248;29;20217;-83
2024/01/12 03:06:39;;;;;;;1.55;0.98;;;17.10;62.40;;;;;;4780728;29;20599;-83
2024/01/12 03:09:04;;;;;;;1.55;0.93;;;17.10;62.20;;;;;;4826404;29;20165;-83
2024/01/12 03:11:32;;;;;;;2.55;1.15;;;17.00;62.10;;;;;;4811607;29;20218;-84
2024/01/12 03:13:59;;;;;;;1.58;0.90;;;17.10;61.80;;;;;;4811358;29;20208;-83
2024/01/12 03:16:29;;;;;;;1.15;0.88;;;17.00;62.30;;;;;;4811076;29;20157;-83
2024/01/12 03:18:56;;;;;;;2.97;1.00;;;17.10;62.20;;;;;;4826947;29;20358;-83
2024/01/12 03:21:27;;;;;;;3.13;0.90;;;17.00;62.30;;;;;;4811516;29;20162;-83
2024/01/12 03:23:52;;;;;;;2.78;1.13;;;17.00;62.40;;;;;;4810584;29;20217;-83
2024/01/12 03:26:23;;;;;;;1.88;0.85;;;17.00;62.40;;;;;;4796204;29;20161;-83
2024/01/12 03:28:52;;;;;;;1.70;0.82;;;17.00;62.10;;;;;;4810444;29;20184;-83
2024/01/12 03:31:20;;;;;;;1.20;0.80;;;17.10;62.10;;;;;;4796724;29;20688;-83
2024/01/12 03:33:45;;;;;;;1.20;0.90;;;17.00;62.40;;;;;;4814500;29;20552;-83
2024/01/12 03:36:12;;;;;;;0.77;0.75;;;17.00;62.00;;;;;;4799707;29;20169;-83
2024/01/12 03:38:38;;;;;;;2.10;0.90;;;17.00;62.30;;;;;;4799505;29;20296;-83
2024/01/12 03:41:06;;;;;;;1.67;1.00;;;17.00;62.10;;;;;;4799485;29;20257;-83
2024/01/12 03:43:31;;;;;;;2.08;0.90;;;17.00;62.00;;;;;;4799890;29;20559;-83
2024/01/12 03:45:57;;;;;;;1.92;1.10;;;17.00;62.60;;;;;;4814415;29;20264;-83
2024/01/12 03:48:23;;;;;;;1.73;0.80;;;17.00;62.50;;;;;;4814837;29;20646;-83
2024/01/12 03:50:49;;;;;;;1.92;0.95;;;17.00;62.20;;;;;;4799160;29;20198;-83
2024/01/12 03:53:15;;;;;;;2.67;0.98;;;17.00;62.20;;;;;;4828165;29;20515;-83
2024/01/12 03:55:41;;;;;;;2.67;1.10;;;17.00;62.40;;;;;;4814804;29;20165;-83
2024/01/12 03:58:06;;;;;;;2.47;0.80;;;16.90;62.50;;;;;;4814725;29;20208;-82
2024/01/12 04:00:32;;;;;;;3.95;1.05;;;16.90;62.30;;;;;;4829459;29;20618;-83
2024/01/12 04:02:59;;;;;;;3.25;1.13;;;16.90;62.60;;;;;;4813666;29;20556;-83
2024/01/12 04:05:25;;;;;;;1.30;1.00;;;16.90;62.60;;;;;;4835568;29;20167;-83
2024/01/12 04:07:55;;;;;;;4.00;0.85;;;16.90;62.60;;;;;;4847081;29;20169;-83
2024/01/12 04:10:21;;;;;;;2.63;1.00;;;16.90;62.10;;;;;;4816854;29;20676;-84
2024/01/12 04:12:46;;;;;;;1.25;0.80;;;16.90;62.20;;;;;;4817650;29;20164;-83
2024/01/12 04:15:13;;;;;;;2.88;0.80;;;17.00;62.10;;;;;;4832167;29;20263;-84
2024/01/12 04:17:39;;;;;;;2.30;1.05;;;17.00;62.20;;;;;;4832087;29;20180;-84
2024/01/12 04:20:11;;;;;;;2.17;1.13;;;17.00;62.00;;;;;;4812122;29;20677;-84
2024/01/12 04:22:38;;;;;;;1.58;0.82;;;17.00;62.20;;;;;;4768098;29;20193;-84
2024/01/12 04:25:04;;;;;;;2.25;0.90;;;17.00;62.10;;;;;;4845698;29;20158;-85
2024/01/12 04:27:34;;;;;;;2.33;1.00;;;16.90;62.40;;;;;;4799637;29;20165;-83
2024/01/12 04:30:00;;;;;;;4.28;1.20;;;16.90;62.50;;;;;;4804630;29;20598;-83
2024/01/12 04:32:28;;;;;;;2.13;0.90;;;16.90;61.80;;;;;;4833034;29;20196;-83
2024/01/12 04:34:55;;;;;;;1.00;0.90;;;17.00;62.20;;;;;;4799336;29;20188;-83
2024/01/12 04:37:25;;;;;;;2.63;0.80;;;16.90;62.50;;;;;;4831788;29;20541;-84
2024/01/12 04:39:51;;;;;;;1.42;0.98;;;16.90;62.70;;;;;;4816885;29;20628;-84
2024/01/12 04:42:17;;;;;;;1.20;0.90;;;16.80;62.60;;;;;;4816396;29;20220;-84
2024/01/12 04:44:43;;;;;;;1.98;0.88;;;16.80;62.90;;;;;;4817400;29;20279;-84
2024/01/12 04:47:09;;;;;;;0.98;0.80;;;16.80;62.90;;;;;;4817895;29;20177;-84
2024/01/12 04:49:36;;;;;;;1.92;0.90;;;16.80;63.20;;;;;;4817532;29;20556;-84
2024/01/12 04:52:05;;;;;;;1.08;0.80;;;16.80;63.70;;;;;;4847370;29;20173;-83
2024/01/12 04:54:35;;;;;;;0.90;0.80;;;16.70;63.50;;;;;;4801622;29;20188;-83
2024/01/12 04:57:01;;;;;;;3.70;1.02;;;16.70;63.10;;;;;;4816090;29;20193;-83
2024/01/12 04:59:27;;;;;;;1.00;0.60;;;16.70;63.20;;;;;;4831335;29;20221;-83
2024/01/12 05:01:52;;;;;;;1.88;0.90;;;16.60;63.20;;;;;;4832069;29;20632;-83
2024/01/12 05:04:22;;;;;;;1.75;0.82;;;16.70;63.10;;;;;;4846852;29;20161;-83
2024/01/12 05:06:48;;;;;;;1.60;0.93;;;16.70;63.30;;;;;;4815495;29;20704;-83
2024/01/12 05:09:17;;;;;;;1.75;1.00;;;16.70;63.50;;;;;;4815914;29;20212;-83
2024/01/12 05:11:43;;;;;;;1.52;0.90;;;16.70;63.60;;;;;;4816115;29;20189;-83
2024/01/12 05:14:09;;;;;;;1.80;0.90;;;16.60;63.60;;;;;;4816254;29;20180;-83
2024/01/12 05:16:35;;;;;;;1.67;0.75;;;16.60;63.40;;;;;;4817587;29;20264;-83
2024/01/12 05:19:00;;;;;;;2.33;1.15;;;16.70;63.40;;;;;;4828981;29;20197;-83
2024/01/12 05:21:26;;;;;;;2.13;0.90;;;16.70;63.40;;;;;;4829093;29;20570;-83
2024/01/12 05:23:53;;;;;;;1.85;0.88;;;16.70;63.20;;;;;;4828996;29;20169;-83
2024/01/12 05:26:19;;;;;;;2.78;0.95;;;16.70;63.20;;;;;;4813102;29;20173;-83
2024/01/12 05:28:44;;;;;;;1.67;1.02;;;16.70;63.10;;;;;;4828891;29;20575;-83
2024/01/12 05:31:14;;;;;;;1.73;1.00;;;16.70;63.10;;;;;;4812527;29;20217;-83
2024/01/12 05:33:40;;;;;;;1.80;0.77;;;16.70;63.00;;;;;;4796481;29;20251;-83
2024/01/12 05:36:06;;;;;;;1.98;1.10;;;16.60;62.60;;;;;;4827858;29;20170;-83
2024/01/12 05:38:32;;;;;;;1.85;0.90;;;16.80;62.90;;;;;;4842967;29;20389;-83
2024/01/12 05:40:59;;;;;;;1.33;0.80;;;16.80;62.50;;;;;;4826418;29;20237;-83
2024/01/12 05:43:25;;;;;;;1.88;0.90;;;16.70;62.70;;;;;;4828459;29;20236;-83
2024/01/12 05:45:50;;;;;;;1.48;0.90;;;16.80;62.80;;;;;;4795686;29;20177;-83
2024/01/12 05:48:16;;;;;;;1.98;0.70;;;16.80;62.80;;;;;;4827369;29;20570;-83
2024/01/12 05:50:42;;;;;;;3.10;1.00;;;16.80;63.10;;;;;;4825591;29;20530;-83
2024/01/12 05:53:09;;;;;;;0.93;0.60;;;16.70;62.90;;;;;;4825941;29;20177;-84
2024/01/12 05:55:36;;;;;;;2.38;0.93;;;16.70;62.90;;;;;;4811569;29;20653;-84
2024/01/12 05:58:03;;;;;;;1.33;0.90;;;16.70;63.00;;;;;;4850251;29;20208;-84
2024/01/12 06:00:29;;;;;;;1.65;0.90;;;16.70;63.10;;;;;;4811711;29;20294;-84
2024/01/12 06:02:54;;;;;;;1.23;0.80;;;16.70;62.90;;;;;;4843102;29;20185;-84
2024/01/12 06:05:20;;;;;;;1.95;1.00;;;16.70;62.90;;;;;;4796803;29;20696;-83
2024/01/12 06:07:48;;;;;;;1.52;0.88;;;16.60;63.00;;;;;;4797177;29;20318;-84
2024/01/12 06:10:14;;;;;;;1.77;0.98;;;16.70;62.90;;;;;;4796413;29;20273;-83
2024/01/12 06:12:40;;;;;;;1.58;0.88;;;16.70;63.10;;;;;;4810820;29;20161;-83
2024/01/12 06:15:06;;;;;;;1.23;0.73;;;16.70;63.20;;;;;;4826309;29;20202;-84
2024/01/12 06:17:32;;;;;;;3.30;0.88;;;16.60;63.10;;;;;;4826630;29;20554;-84
2024/01/12 06:19:57;;;;;;;1.77;0.70;;;16.70;63.10;;;;;;4799171;29;20268;-84
2024/01/12 06:22:25;;;;;;;1.42;0.80;;;16.70;63.10;;;;;;4810687;29;20587;-84
2024/01/12 06:24:51;;;;;;;1.67;1.00;;;16.70;63.30;;;;;;4811355;29;20161;-83
2024/01/12 06:27:16;;;;;;;2.08;0.90;;;16.60;63.90;;;;;;4811359;29;20261;-83
2024/01/12 06:29:42;;;;;;;1.48;0.90;;;16.60;63.50;;;;;;4808571;29;20547;-83
2024/01/12 06:32:08;;;;;;;3.08;0.90;;;16.60;63.10;;;;;;4823324;29;20176;-84
2024/01/12 06:34:39;;;;;;;1.50;1.00;;;16.60;63.40;;;;;;4844407;29;20566;-83
2024/01/12 06:37:05;;;;;;;1.58;1.13;;;16.60;63.00;;;;;;4829590;29;20180;-84
2024/01/12 06:39:30;;;;;;;1.15;0.90;;;16.70;63.00;;;;;;4811559;29;20210;-84
2024/01/12 06:41:58;;;;;;;0.70;0.70;;;16.60;63.10;;;;;;4808246;29;20590;-83
2024/01/12 06:44:24;;;;;;;0.93;0.80;;;16.60;63.10;;;;;;4807421;29;20594;-83
2024/01/12 06:46:50;;;;;;;1.60;0.77;;;16.60;63.50;;;;;;4830088;29;20206;-83
2024/01/12 06:49:16;;;;;;;1.48;1.10;;;16.50;63.40;;;;;;4825869;29;20185;-83
2024/01/12 06:51:42;;;;;;;1.73;0.70;;;16.60;63.30;;;;;;4810811;29;20174;-83
2024/01/12 06:54:10;;;;;;;2.55;0.88;;;16.60;63.40;;;;;;4810651;29;20721;-83
2024/01/12 06:56:37;;;;;;;1.05;0.68;;;16.60;63.20;;;;;;4821786;29;20636;-83
2024/01/12 06:59:04;;;;;;;2.10;0.90;;;16.60;63.00;;;;;;4806478;29;20331;-83
2024/01/12 07:01:30;;;;;;;2.38;0.85;;;16.60;63.10;;;;;;4783802;29;20433;-84
2024/01/12 07:03:56;;;;;;;1.38;0.82;;;16.60;63.30;;;;;;4788296;29;20666;-83
2024/01/12 07:06:22;;;;;;;1.13;0.82;;;16.60;63.20;;;;;;4807618;29;20185;-83
2024/01/12 07:08:48;;;;;;;2.45;0.65;;;16.50;63.30;;;;;;4807505;29;20190;-83
2024/01/12 07:11:14;;;;;;;0.60;0.60;;;16.50;63.10;;;;;;4809436;29;20174;-82
2024/01/12 07:13:40;;;;;;;1.63;0.93;;;16.50;63.10;;;;;;4793906;29;20304;-83
2024/01/12 07:16:06;;;;;;;1.17;0.80;;;16.50;63.50;;;;;;4798483;29;20227;-83
2024/01/12 07:18:33;;;;;;;0.80;0.70;;;16.60;63.20;;;;;;4800071;29;20226;-84
2024/01/12 07:21:04;;;;;;;1.75;0.82;;;16.60;62.70;;;;;;4799176;29;20272;-84
2024/01/12 07:23:31;;;;;;;0.70;0.63;;;16.60;62.20;;;;;;4793007;29;20281;-83
2024/01/12 07:25:58;;;;;;;0.70;0.60;;;16.70;62.40;;;;;;4793612;29;20178;-84
2024/01/12 07:28:25;;;;;;;1.27;0.70;;;16.70;62.00;;;;;;4811532;29;20178;-84
2024/01/12 07:30:53;;;;;;;1.20;0.90;;;16.70;61.60;;;;;;4845117;29;20185;-84
2024/01/12 07:33:20;;;;;;;1.88;0.85;;;16.80;62.20;;;;;;4849149;29;20152;-84
2024/01/12 07:35:49;;;;;;;1.30;0.95;;;16.70;61.60;;;;;;4839911;29;20164;-83
2024/01/12 07:38:14;;;;;;;0.80;0.70;;;16.80;61.40;;;;;;4840379;29;20203;-84
2024/01/12 07:40:46;;;;;;;1.92;0.73;;;16.80;61.70;;;;;;4838228;29;20261;-84
2024/01/12 07:43:19;;;;;;;1.27;0.77;;;16.70;61.60;;;;;;4830399;29;20221;-84
2024/01/12 07:45:51;;;;;;;3.35;1.23;;;16.70;62.20;;;;;;4814545;29;20201;-83
2024/01/12 07:48:17;;;;;;;1.88;0.60;;;16.60;62.20;;;;;;4817189;29;20221;-84
2024/01/12 07:50:47;;;;;;;1.55;0.70;;;16.60;62.20;;;;;;4799697;29;20249;-83
2024/01/12 07:53:19;;;;;;;0.80;0.60;;;16.60;62.90;;;;;;4799421;29;20167;-83
2024/01/12 07:55:52;;;;;;;0.90;0.50;;;16.70;62.70;;;;;;4784722;29;20761;-83
2024/01/12 07:58:23;;;;;;;1.38;0.82;;;16.70;62.50;;;;;;4752708;30;20583;-83
2024/01/12 08:00:52;;;;;;;1.48;0.73;;;16.70;61.70;;;;;;4761708;30;20185;-83
2024/01/12 08:03:18;;;;;;;0.63;0.57;;;16.70;62.20;;;;;;4760977;30;20252;-83
2024/01/12 08:05:45;;;;;;;1.20;0.90;;;16.70;62.30;;;;;;4776275;30;20185;-82
2024/01/12 08:08:11;;;;;;;0.68;0.63;;;16.70;62.60;;;;;;4761709;30;20310;-84
2024/01/12 08:10:38;;;;;;;2.03;0.90;;;16.70;62.00;;;;;;4776806;30;20196;-83
2024/01/12 08:13:07;;;;;;;1.30;0.70;;;16.70;62.20;;;;;;4779183;30;20177;-83
2024/01/12 08:15:34;;;;;;;1.15;0.70;;;16.60;62.40;;;;;;4777642;30;20215;-83
2024/01/12 08:20:40;;;;;;;0.85;0.70;;;16.70;61.60;;;;;;5168543;23;20247;-84
2024/01/12 08:23:10;;;;;;;1.95;0.80;;;16.70;62.10;;;;;;4822868;29;20256;-85
2024/01/12 08:25:40;;;;;;;1.13;0.77;;;16.70;61.00;;;;;;4807756;29;20182;-85
2024/01/12 08:28:07;;;;;;;1.13;0.70;;;16.80;60.90;;;;;;4825289;29;20216;-84
2024/01/12 08:30:34;;;;;;;2.35;0.88;;;16.80;61.30;;;;;;4824436;29;20197;-83
2024/01/12 08:33:08;;;;;;;0.95;0.73;;;16.70;61.20;;;;;;4840079;29;20691;-84
2024/01/12 08:35:39;;;;;;;1.23;0.80;;;16.80;60.70;;;;;;4823296;29;20181;-84
2024/01/12 08:38:08;;;;;;;0.85;0.63;;;16.80;60.60;;;;;;4808461;29;20294;-84
2024/01/12 08:40:39;;;;;;;0.98;0.63;;;16.80;61.20;;;;;;4823653;29;20192;-83
2024/01/12 08:43:08;;;;;;;1.15;0.75;;;16.80;61.10;;;;;;4823188;29;20257;-83
2024/01/12 08:45:37;;;;;;;1.23;0.63;;;16.80;61.00;;;;;;4838798;29;20165;-84
2024/01/12 08:48:07;;;;;;;1.27;0.88;;;16.80;61.50;;;;;;4823938;29;20221;-83
2024/01/12 08:50:37;;;;;;;0.73;0.50;;;16.80;61.60;;;;;;4823858;29;20169;-84
2024/01/12 08:53:05;;;;;;;1.42;0.63;;;16.70;60.70;;;;;;4794031;29;20222;-84
2024/01/12 08:55:54;;;;;;;0.60;0.60;;;16.70;60.40;;;;;;4949367;24;20795;-84
2024/01/12 08:58:20;;;;;;;1.48;0.70;;;16.80;60.80;;;;;;4840144;29;20220;-84
2024/01/12 09:00:55;;;;;;;1.10;0.75;;;16.80;60.90;;;;;;4839907;29;20549;-84
2024/01/12 09:03:28;;;;;;;1.42;0.77;;;16.80;61.40;;;;;;4839016;29;20181;-84
2024/01/12 09:05:57;;;;;;;0.55;0.50;;;16.70;60.80;;;;;;4819159;29;20190;-83
2024/01/12 09:13:41;;;;;;;1.17;0.80;;;16.80;60.20;;;;;;5004274;23;20247;-84
2024/01/12 09:16:14;;;;;;;1.90;0.63;;;16.80;60.80;;;;;;4876726;29;20188;-84
2024/01/12 09:18:49;;;;;;;0.77;0.55;;;16.80;60.70;;;;;;4844955;29;20231;-84
2024/01/12 09:21:23;;;;;;;0.55;0.55;;;16.80;60.90;;;;;;4861158;29;20175;-84
2024/01/12 09:23:57;;;;;;;0.98;0.60;;;16.80;60.90;;;;;;4845052;29;20210;-83
2024/01/12 09:26:23;;;;;;;1.05;0.50;;;16.80;60.40;;;;;;4844395;29;20192;-84
2024/01/12 09:28:49;;;;;;;1.95;0.70;;;16.80;60.20;;;;;;4860834;29;20231;-84
2024/01/12 09:31:16;;;;;;;0.75;0.70;;;16.90;60.50;;;;;;4860457;29;20172;-85
2024/01/12 09:33:47;;;;;;;0.90;0.60;;;16.80;60.70;;;;;;4861272;29;20157;-83
2024/01/12 09:36:18;;;;;;;1.00;0.73;;;16.80;60.50;;;;;;4857020;29;20177;-83
2024/01/12 09:38:45;;;;;;;1.02;0.70;;;16.80;60.90;;;;;;4820471;29;20254;-84
2024/01/12 09:41:11;;;;;;;1.08;0.70;;;16.70;60.40;;;;;;4804713;29;20190;-85
2024/01/12 09:43:38;;;;;;;2.45;0.65;;;16.80;60.00;;;;;;4820137;29;20222;-83
2024/01/12 09:46:06;;;;;;;0.77;0.60;;;16.80;60.30;;;;;;4805216;29;20208;-84
2024/01/12 09:48:37;;;;;;;1.20;0.60;;;16.80;60.50;;;;;;4821043;29;20182;-84
2024/01/12 09:51:09;;;;;;;0.70;0.60;;;16.70;60.70;;;;;;4804630;29;20218;-84
2024/01/12 09:53:42;;;;;;;1.08;0.60;;;16.80;59.80;;;;;;4835814;29;20201;-84
2024/01/12 09:58:48;;;;;;;0.65;0.60;;;16.70;59.90;;;;;;5481274;23;20239;-83
2024/01/12 10:01:16;;;;;;;0.85;0.60;;;16.80;60.20;;;;;;4842714;29;20160;-84
2024/01/12 10:03:46;;;;;;;0.95;0.70;;;16.80;60.70;;;;;;4843027;29;20166;-84
2024/01/12 10:06:14;;;;;;;1.52;0.75;;;16.70;60.40;;;;;;4842731;29;20180;-84
2024/01/12 10:08:41;;;;;;;1.00;0.75;;;16.70;59.90;;;;;;4827401;29;20177;-84
2024/01/12 10:11:07;;;;;;;0.77;0.63;;;16.80;60.10;;;;;;4837440;29;20188;-83
2024/01/12 10:13:37;;;;;;;0.65;0.65;;;16.80;60.30;;;;;;4841748;29;20547;-83
2024/01/12 10:16:07;;;;;;;0.60;0.40;;;16.70;60.30;;;;;;4838126;29;20185;-84
2024/01/12 10:18:40;;;;;;;0.75;0.60;;;16.80;60.00;;;;;;4822781;29;20233;-83
2024/01/12 10:21:06;;;;;;;0.75;0.50;;;16.80;60.10;;;;;;4852740;29;20185;-84
2024/01/12 10:23:33;;;;;;;0.65;0.60;;;16.80;60.10;;;;;;4850949;29;20579;-84
2024/01/12 10:26:05;;;;;;;0.77;0.52;;;16.80;60.40;;;;;;4855894;29;20276;-84
2024/01/12 10:28:32;;;;;;;0.82;0.57;;;16.80;59.70;;;;;;4857087;29;20165;-84
2024/01/12 10:31:03;;;;;;;1.65;0.60;;;16.80;59.80;;;;;;4856149;29;20181;-84
2024/01/12 10:33:30;;;;;;;0.80;0.50;;;16.70;60.30;;;;;;4855278;29;20236;-84
2024/01/12 10:36:12;;;;;;;1.25;0.60;;;16.70;59.80;;;;;;4838014;29;20212;-84
2024/01/12 10:38:39;;;;;;;0.98;0.63;;;16.80;59.70;;;;;;4854606;29;20228;-84
2024/01/12 10:41:07;;;;;;;0.50;0.50;;;16.80;59.90;;;;;;4838952;29;20181;-84
2024/01/12 10:43:38;;;;;;;0.60;0.50;;;16.70;59.80;;;;;;4855163;29;20646;-84
2024/01/12 10:46:11;;;;;;;1.08;0.52;;;16.80;59.90;;;;;;4840665;29;20637;-84
2024/01/12 10:48:46;;;;;;;1.08;0.55;;;16.80;59.90;;;;;;4841925;29;20180;-84
2024/01/12 10:51:14;;;;;;;1.05;0.70;;;16.80;58.80;;;;;;4818973;29;20197;-84
2024/01/12 10:53:49;;;;;;;0.40;0.40;;;16.80;59.40;;;;;;4819418;29;20193;-83
2024/01/12 10:56:18;;;;;;;0.60;0.40;;;16.80;59.60;;;;;;4779314;30;20187;-84
2024/01/12 10:58:44;;;;;;;0.68;0.50;;;16.70;59.20;;;;;;4765758;30;20232;-83
2024/01/12 11:01:15;;;;;;;0.88;0.52;;;16.80;59.40;;;;;;4754781;30;20223;-84
2024/01/12 11:03:43;;;;;;;1.33;0.68;;;16.80;59.30;;;;;;4783807;30;20183;-84
2024/01/12 11:06:09;;;;;;;0.85;0.65;;;16.90;59.50;;;;;;4767573;30;20215;-84
2024/01/12 11:08:38;;;;;;;1.13;0.65;;;16.80;59.30;;;;;;4782947;30;20698;-83
2024/01/12 11:11:05;;;;;;;0.68;0.60;;;16.80;59.30;;;;;;4780215;30;20200;-83
2024/01/12 11:13:34;;;;;;;1.98;0.80;;;16.90;58.90;;;;;;4778817;30;20192;-84
2024/01/12 11:16:02;;;;;;;0.80;0.50;;;16.90;59.00;;;;;;4748501;30;20269;-83
2024/01/12 11:18:28;;;;;;;0.90;0.60;;;16.90;59.20;;;;;;4765589;30;20215;-84
2024/01/12 11:21:04;;;;;;;0.90;0.60;;;16.80;58.70;;;;;;4766525;30;20192;-84
2024/01/12 11:23:49;;;;;;;0.40;0.40;;;16.90;58.70;;;;;;4766545;30;20198;-84
2024/01/12 11:26:15;;;;;;;0.98;0.50;;;16.90;59.00;;;;;;4785494;29;20193;-83
2024/01/12 11:28:45;;;;;;;1.33;0.70;;;16.90;58.80;;;;;;4800567;29;20171;-84
2024/01/12 11:31:28;;;;;;;0.60;0.50;;;16.90;58.90;;;;;;4801014;29;20190;-84
2024/01/12 11:34:01;;;;;;;0.93;0.50;;;16.80;58.70;;;;;;4785402;29;20227;-84
2024/01/12 11:36:29;;;;;;;0.40;0.40;;;16.90;58.00;;;;;;4800860;29;20221;-84
2024/01/12 11:39:01;;;;;;;0.63;0.50;;;16.90;58.30;;;;;;4816272;29;20211;-83
2024/01/12 11:41:32;;;;;;;1.23;0.80;;;17.00;58.20;;;;;;4790971;29;20533;-83
2024/01/12 11:43:58;;;;;;;0.90;0.60;;;17.00;58.10;;;;;;4802361;29;20203;-84
2024/01/12 11:46:29;;;;;;;0.50;0.50;;;16.90;58.10;;;;;;4818643;29;20186;-84
2024/01/12 11:49:08;;;;;;;0.60;0.57;;;16.80;57.90;;;;;;4788797;29;20200;-84
2024/01/12 11:51:41;;;;;;;1.20;0.50;;;16.90;57.70;;;;;;4788636;29;20193;-84
2024/01/12 11:54:13;;;;;;;1.05;0.70;;;16.90;57.60;;;;;;4857799;29;20237;-83
2024/01/12 11:56:42;;;;;;;0.73;0.50;;;16.80;58.00;;;;;;4845540;29;20264;-84
2024/01/12 11:59:10;;;;;;;0.55;0.40;;;16.90;57.60;;;;;;4844750;29;20320;-83
2024/01/12 12:01:38;;;;;;;0.60;0.50;;;16.90;57.80;;;;;;4860117;29;20161;-84
2024/01/12 12:04:10;;;;;;;1.15;0.40;;;16.80;57.50;;;;;;4844854;29;20176;-83
2024/01/12 12:06:47;;;;;;;0.80;0.60;;;16.80;57.30;;;;;;4849872;29;20180;-83
2024/01/12 12:09:13;;;;;;;0.40;0.40;;;16.90;57.50;;;;;;4863316;29;20235;-83
2024/01/12 12:11:47;;;;;;;0.80;0.50;;;16.80;57.00;;;;;;4894399;29;20223;-83
2024/01/12 12:14:15;;;;;;;0.68;0.55;;;16.90;57.30;;;;;;4831465;29;20607;-82
2024/01/12 12:16:41;;;;;;;1.20;0.47;;;16.80;57.40;;;;;;4852038;29;20232;-84
2024/01/12 12:19:09;;;;;;;0.80;0.60;;;16.90;57.00;;;;;;4849827;29;20200;-84
2024/01/12 12:21:35;;;;;;;0.47;0.43;;;16.90;57.50;;;;;;4817558;29;20172;-84
2024/01/12 12:24:01;;;;;;;0.65;0.50;;;16.90;57.00;;;;;;4832994;29;20169;-84
2024/01/12 12:26:31;;;;;;;0.70;0.60;;;17.00;57.30;;;;;;4849534;29;20173;-84
2024/01/12 12:28:59;;;;;;;0.77;0.50;;;17.00;57.50;;;;;;4803207;29;20264;-85
2024/01/12 12:31:27;;;;;;;0.60;0.50;;;16.90;56.80;;;;;;4842706;29;20164;-84
2024/01/12 12:33:53;;;;;;;0.75;0.60;;;17.00;56.90;;;;;;4825056;29;20656;-84
2024/01/12 12:36:22;;;;;;;0.57;0.55;;;17.00;56.70;;;;;;4832090;29;20263;-84
2024/01/12 12:38:49;;;;;;;1.05;0.70;;;17.10;56.40;;;;;;4799563;29;20221;-83
2024/01/12 12:41:20;;;;;;;0.70;0.50;;;17.00;56.60;;;;;;4831208;29;20164;-84
2024/01/12 12:43:50;;;;;;;0.65;0.55;;;17.00;56.30;;;;;;4814914;29;20190;-84
2024/01/12 12:46:16;;;;;;;0.70;0.50;;;17.10;55.70;;;;;;4830080;29;20276;-84
2024/01/12 12:48:45;;;;;;;0.65;0.55;;;17.10;56.30;;;;;;4832552;29;20182;-84
2024/01/12 12:51:12;;;;;;;0.98;0.60;;;17.10;56.40;;;;;;4823273;29;20191;-84
2024/01/12 12:53:38;;;;;;;0.50;0.50;;;17.10;56.50;;;;;;4853645;29;20161;-84
2024/01/12 12:56:04;;;;;;;0.80;0.65;;;17.00;56.80;;;;;;4838073;29;20169;-85
2024/01/12 12:58:31;;;;;;;0.40;0.40;;;17.00;56.20;;;;;;4847212;29;20265;-83
2024/01/12 13:00:59;;;;;;;0.50;0.50;;;17.00;56.70;;;;;;4804373;29;20545;-84
2024/01/12 13:03:26;;;;;;;0.82;0.70;;;17.10;56.80;;;;;;4837114;29;20602;-84